sensor_id;sensor_type;location;lat;lon;timestamp;P1;durP1;ratioP1;P2;durP2;ratioP2
75379;SDS011;65641;44.714;37.756;2024-03-08T00:00:29;7.22;;;6.53;;
75379;SDS011;65641;44.714;37.756;2024-03-08T00:01:35;6.15;;;4.75;;
75379;SDS011;65641;44.714;37.756;2024-03-08T00:02:39;7.07;;;6.38;;
75379;SDS011;65641;44.714;37.756;2024-03-08T00:03:43;6.15;;;4.35;;
75379;SDS011;65641;44.714;37.756;2024-03-08T00:04:47;6.95;;;6.35;;
75379;SDS011;65641;44.714;37.756;2024-03-08T00:05:50;6.40;;;4.65;;
75379;SDS011;65641;44.714;37.756;2024-03-08T00:06:54;6.95;;;6.25;;
75379;SDS011;65641;44.714;37.756;2024-03-08T00:07:57;7.47;;;6.78;;
75379;SDS011;65641;44.714;37.756;2024-03-08T00:09:02;7.57;;;6.63;;
75379;SDS011;65641;44.714;37.756;2024-03-08T00:10:07;7.50;;;6.80;;
75379;SDS011;65641;44.714;37.756;2024-03-08T00:11:19;7.25;;;6.55;;
75379;SDS011;65641;44.714;37.756;2024-03-08T00:12:24;8.32;;;7.30;;
75379;SDS011;65641;44.714;37.756;2024-03-08T00:13:29;7.47;;;6.07;;
75379;SDS011;65641;44.714;37.756;2024-03-08T00:14:33;7.65;;;6.88;;
75379;SDS011;65641;44.714;37.756;2024-03-08T00:15:36;6.88;;;6.10;;
75379;SDS011;65641;44.714;37.756;2024-03-08T00:16:40;7.97;;;6.35;;
75379;SDS011;65641;44.714;37.756;2024-03-08T00:17:46;7.13;;;5.18;;
75379;SDS011;65641;44.714;37.756;2024-03-08T00:18:50;8.20;;;7.32;;
75379;SDS011;65641;44.714;37.756;2024-03-08T00:19:54;8.25;;;7.45;;
75379;SDS011;65641;44.714;37.756;2024-03-08T00:20:58;7.50;;;6.80;;
75379;SDS011;65641;44.714;37.756;2024-03-08T00:22:02;7.32;;;6.63;;
75379;SDS011;65641;44.714;37.756;2024-03-08T00:23:05;7.38;;;6.45;;
75379;SDS011;65641;44.714;37.756;2024-03-08T00:24:09;8.18;;;6.68;;
75379;SDS011;65641;44.714;37.756;2024-03-08T00:25:12;6.75;;;6.05;;
75379;SDS011;65641;44.714;37.756;2024-03-08T00:26:16;7.13;;;6.38;;
75379;SDS011;65641;44.714;37.756;2024-03-08T00:27:19;8.27;;;7.35;;
75379;SDS011;65641;44.714;37.756;2024-03-08T00:28:23;7.15;;;5.57;;
75379;SDS011;65641;44.714;37.756;2024-03-08T00:29:27;7.85;;;7.05;;
75379;SDS011;65641;44.714;37.756;2024-03-08T00:30:31;6.88;;;5.32;;
75379;SDS011;65641;44.714;37.756;2024-03-08T00:31:34;8.93;;;7.53;;
75379;SDS011;65641;44.714;37.756;2024-03-08T00:32:38;8.07;;;6.95;;
75379;SDS011;65641;44.714;37.756;2024-03-08T00:33:41;7.15;;;6.18;;
75379;SDS011;65641;44.714;37.756;2024-03-08T00:34:45;7.53;;;6.60;;
75379;SDS011;65641;44.714;37.756;2024-03-08T00:35:48;8.57;;;6.78;;
75379;SDS011;65641;44.714;37.756;2024-03-08T00:36:52;8.07;;;7.28;;
75379;SDS011;65641;44.714;37.756;2024-03-08T00:37:55;8.20;;;6.32;;
75379;SDS011;65641;44.714;37.756;2024-03-08T00:38:59;7.57;;;5.47;;
75379;SDS011;65641;44.714;37.756;2024-03-08T00:40:03;8.65;;;7.20;;
75379;SDS011;65641;44.714;37.756;2024-03-08T00:41:10;7.53;;;6.53;;
75379;SDS011;65641;44.714;37.756;2024-03-08T00:42:13;7.50;;;6.55;;
75379;SDS011;65641;44.714;37.756;2024-03-08T00:43:17;8.88;;;6.95;;
75379;SDS011;65641;44.714;37.756;2024-03-08T00:44:20;7.50;;;6.28;;
75379;SDS011;65641;44.714;37.756;2024-03-08T00:45:24;9.13;;;7.97;;
75379;SDS011;65641;44.714;37.756;2024-03-08T00:46:27;7.75;;;5.72;;
75379;SDS011;65641;44.714;37.756;2024-03-08T00:47:31;7.85;;;6.63;;
75379;SDS011;65641;44.714;37.756;2024-03-08T00:48:34;8.63;;;6.50;;
75379;SDS011;65641;44.714;37.756;2024-03-08T00:49:40;8.23;;;6.93;;
75379;SDS011;65641;44.714;37.756;2024-03-08T00:50:44;8.13;;;6.20;;
75379;SDS011;65641;44.714;37.756;2024-03-08T00:51:48;7.35;;;5.57;;
75379;SDS011;65641;44.714;37.756;2024-03-08T00:52:51;7.35;;;6.43;;
75379;SDS011;65641;44.714;37.756;2024-03-08T00:53:55;8.82;;;7.38;;
75379;SDS011;65641;44.714;37.756;2024-03-08T00:54:59;7.00;;;5.13;;
75379;SDS011;65641;44.714;37.756;2024-03-08T00:56:02;9.68;;;7.65;;
75379;SDS011;65641;44.714;37.756;2024-03-08T00:57:07;8.02;;;7.10;;
75379;SDS011;65641;44.714;37.756;2024-03-08T00:58:10;9.90;;;7.30;;
75379;SDS011;65641;44.714;37.756;2024-03-08T00:59:14;9.23;;;8.13;;
75379;SDS011;65641;44.714;37.756;2024-03-08T01:00:17;8.18;;;5.68;;
75379;SDS011;65641;44.714;37.756;2024-03-08T01:01:22;9.38;;;7.40;;
75379;SDS011;65641;44.714;37.756;2024-03-08T01:02:27;9.00;;;6.97;;
75379;SDS011;65641;44.714;37.756;2024-03-08T01:03:32;7.75;;;6.60;;
75379;SDS011;65641;44.714;37.756;2024-03-08T01:04:37;8.90;;;5.90;;
75379;SDS011;65641;44.714;37.756;2024-03-08T01:05:40;8.18;;;7.30;;
75379;SDS011;65641;44.714;37.756;2024-03-08T01:06:43;7.72;;;6.90;;
75379;SDS011;65641;44.714;37.756;2024-03-08T01:07:50;8.57;;;7.32;;
75379;SDS011;65641;44.714;37.756;2024-03-08T01:08:54;7.85;;;6.80;;
75379;SDS011;65641;44.714;37.756;2024-03-08T01:09:57;8.30;;;6.32;;
75379;SDS011;65641;44.714;37.756;2024-03-08T01:11:01;8.57;;;7.65;;
75379;SDS011;65641;44.714;37.756;2024-03-08T01:12:04;7.25;;;5.72;;
75379;SDS011;65641;44.714;37.756;2024-03-08T01:13:10;8.38;;;7.05;;
75379;SDS011;65641;44.714;37.756;2024-03-08T01:14:13;10.75;;;8.00;;
75379;SDS011;65641;44.714;37.756;2024-03-08T01:15:17;8.48;;;7.55;;
75379;SDS011;65641;44.714;37.756;2024-03-08T01:16:20;9.05;;;6.93;;
75379;SDS011;65641;44.714;37.756;2024-03-08T01:17:24;8.48;;;7.43;;
75379;SDS011;65641;44.714;37.756;2024-03-08T01:18:27;7.90;;;7.07;;
75379;SDS011;65641;44.714;37.756;2024-03-08T01:19:32;8.43;;;7.38;;
75379;SDS011;65641;44.714;37.756;2024-03-08T01:20:36;9.48;;;8.13;;
75379;SDS011;65641;44.714;37.756;2024-03-08T01:21:39;8.50;;;6.18;;
75379;SDS011;65641;44.714;37.756;2024-03-08T01:22:43;8.82;;;7.45;;
75379;SDS011;65641;44.714;37.756;2024-03-08T01:23:46;8.85;;;7.47;;
75379;SDS011;65641;44.714;37.756;2024-03-08T01:24:50;9.25;;;8.30;;
75379;SDS011;65641;44.714;37.756;2024-03-08T01:25:53;9.60;;;8.02;;
75379;SDS011;65641;44.714;37.756;2024-03-08T01:26:59;9.45;;;7.72;;
75379;SDS011;65641;44.714;37.756;2024-03-08T01:28:03;8.43;;;7.43;;
75379;SDS011;65641;44.714;37.756;2024-03-08T01:29:07;9.20;;;7.45;;
75379;SDS011;65641;44.714;37.756;2024-03-08T01:30:10;8.45;;;5.78;;
75379;SDS011;65641;44.714;37.756;2024-03-08T01:31:15;9.10;;;7.63;;
75379;SDS011;65641;44.714;37.756;2024-03-08T01:32:18;10.60;;;7.43;;
75379;SDS011;65641;44.714;37.756;2024-03-08T01:33:22;8.90;;;6.50;;
75379;SDS011;65641;44.714;37.756;2024-03-08T01:34:28;8.50;;;6.75;;
75379;SDS011;65641;44.714;37.756;2024-03-08T01:35:31;8.77;;;7.50;;
75379;SDS011;65641;44.714;37.756;2024-03-08T01:36:35;9.18;;;7.70;;
75379;SDS011;65641;44.714;37.756;2024-03-08T01:37:40;7.75;;;5.72;;
75379;SDS011;65641;44.714;37.756;2024-03-08T01:38:43;8.68;;;7.50;;
75379;SDS011;65641;44.714;37.756;2024-03-08T01:39:46;8.15;;;6.53;;
75379;SDS011;65641;44.714;37.756;2024-03-08T01:40:50;8.52;;;7.57;;
75379;SDS011;65641;44.714;37.756;2024-03-08T01:41:53;8.02;;;6.20;;
75379;SDS011;65641;44.714;37.756;2024-03-08T01:42:57;8.40;;;7.40;;
75379;SDS011;65641;44.714;37.756;2024-03-08T01:44:21;8.73;;;7.28;;
75379;SDS011;65641;44.714;37.756;2024-03-08T01:45:25;8.80;;;7.32;;
75379;SDS011;65641;44.714;37.756;2024-03-08T01:46:28;9.23;;;6.25;;
75379;SDS011;65641;44.714;37.756;2024-03-08T01:47:32;10.00;;;7.32;;
75379;SDS011;65641;44.714;37.756;2024-03-08T01:48:36;8.63;;;6.63;;
75379;SDS011;65641;44.714;37.756;2024-03-08T01:49:40;8.52;;;6.10;;
75379;SDS011;65641;44.714;37.756;2024-03-08T01:50:44;9.60;;;7.60;;
75379;SDS011;65641;44.714;37.756;2024-03-08T01:51:48;8.20;;;5.68;;
75379;SDS011;65641;44.714;37.756;2024-03-08T01:52:52;9.23;;;6.15;;
75379;SDS011;65641;44.714;37.756;2024-03-08T01:53:55;9.07;;;6.60;;
75379;SDS011;65641;44.714;37.756;2024-03-08T01:55:03;8.80;;;7.72;;
75379;SDS011;65641;44.714;37.756;2024-03-08T01:57:15;7.72;;;5.35;;
75379;SDS011;65641;44.714;37.756;2024-03-08T01:58:19;9.65;;;8.30;;
75379;SDS011;65641;44.714;37.756;2024-03-08T01:59:25;7.43;;;6.15;;
75379;SDS011;65641;44.714;37.756;2024-03-08T02:00:29;9.48;;;8.00;;
75379;SDS011;65641;44.714;37.756;2024-03-08T02:01:33;9.02;;;7.68;;
75379;SDS011;65641;44.714;37.756;2024-03-08T02:02:37;8.98;;;6.43;;
75379;SDS011;65641;44.714;37.756;2024-03-08T02:03:40;9.63;;;6.32;;
75379;SDS011;65641;44.714;37.756;2024-03-08T02:04:48;9.02;;;7.88;;
75379;SDS011;65641;44.714;37.756;2024-03-08T02:05:51;9.32;;;7.47;;
75379;SDS011;65641;44.714;37.756;2024-03-08T02:06:55;10.80;;;8.05;;
75379;SDS011;65641;44.714;37.756;2024-03-08T02:08:01;9.15;;;6.50;;
75379;SDS011;65641;44.714;37.756;2024-03-08T02:09:05;10.30;;;8.48;;
75379;SDS011;65641;44.714;37.756;2024-03-08T02:10:09;8.85;;;6.78;;
75379;SDS011;65641;44.714;37.756;2024-03-08T02:11:15;9.27;;;6.45;;
75379;SDS011;65641;44.714;37.756;2024-03-08T02:12:19;9.90;;;7.95;;
75379;SDS011;65641;44.714;37.756;2024-03-08T02:13:26;9.60;;;7.75;;
75379;SDS011;65641;44.714;37.756;2024-03-08T02:14:29;9.50;;;7.68;;
75379;SDS011;65641;44.714;37.756;2024-03-08T02:15:50;9.45;;;8.07;;
75379;SDS011;65641;44.714;37.756;2024-03-08T02:17:03;9.00;;;7.90;;
75379;SDS011;65641;44.714;37.756;2024-03-08T02:18:07;9.25;;;6.75;;
75379;SDS011;65641;44.714;37.756;2024-03-08T02:19:11;9.68;;;8.40;;
75379;SDS011;65641;44.714;37.756;2024-03-08T02:20:14;10.05;;;8.00;;
75379;SDS011;65641;44.714;37.756;2024-03-08T02:21:18;10.82;;;8.27;;
75379;SDS011;65641;44.714;37.756;2024-03-08T02:22:22;8.38;;;6.80;;
75379;SDS011;65641;44.714;37.756;2024-03-08T02:23:25;9.73;;;7.82;;
75379;SDS011;65641;44.714;37.756;2024-03-08T02:24:30;10.02;;;7.85;;
75379;SDS011;65641;44.714;37.756;2024-03-08T02:25:34;8.88;;;7.53;;
75379;SDS011;65641;44.714;37.756;2024-03-08T02:26:38;8.52;;;7.53;;
75379;SDS011;65641;44.714;37.756;2024-03-08T02:27:42;9.98;;;7.68;;
75379;SDS011;65641;44.714;37.756;2024-03-08T02:28:45;9.05;;;7.80;;
75379;SDS011;65641;44.714;37.756;2024-03-08T02:29:49;11.00;;;7.72;;
75379;SDS011;65641;44.714;37.756;2024-03-08T02:30:53;8.75;;;7.20;;
75379;SDS011;65641;44.714;37.756;2024-03-08T02:32:00;9.80;;;7.78;;
75379;SDS011;65641;44.714;37.756;2024-03-08T02:33:07;8.68;;;7.10;;
75379;SDS011;65641;44.714;37.756;2024-03-08T02:34:12;9.35;;;7.53;;
75379;SDS011;65641;44.714;37.756;2024-03-08T02:35:16;9.10;;;7.28;;
75379;SDS011;65641;44.714;37.756;2024-03-08T02:36:19;10.10;;;8.00;;
75379;SDS011;65641;44.714;37.756;2024-03-08T02:37:23;8.73;;;7.68;;
75379;SDS011;65641;44.714;37.756;2024-03-08T02:38:26;9.52;;;8.18;;
75379;SDS011;65641;44.714;37.756;2024-03-08T02:39:31;9.70;;;7.75;;
75379;SDS011;65641;44.714;37.756;2024-03-08T02:40:34;8.50;;;7.50;;
75379;SDS011;65641;44.714;37.756;2024-03-08T02:41:38;9.40;;;7.68;;
75379;SDS011;65641;44.714;37.756;2024-03-08T02:42:41;8.93;;;5.95;;
75379;SDS011;65641;44.714;37.756;2024-03-08T02:43:45;8.55;;;7.30;;
75379;SDS011;65641;44.714;37.756;2024-03-08T02:44:49;8.95;;;6.38;;
75379;SDS011;65641;44.714;37.756;2024-03-08T02:45:52;8.65;;;6.25;;
75379;SDS011;65641;44.714;37.756;2024-03-08T02:46:56;8.43;;;5.82;;
75379;SDS011;65641;44.714;37.756;2024-03-08T02:47:59;8.88;;;7.75;;
75379;SDS011;65641;44.714;37.756;2024-03-08T02:49:03;10.00;;;8.18;;
75379;SDS011;65641;44.714;37.756;2024-03-08T02:50:07;7.70;;;5.60;;
75379;SDS011;65641;44.714;37.756;2024-03-08T02:51:10;9.05;;;5.93;;
75379;SDS011;65641;44.714;37.756;2024-03-08T02:52:14;9.35;;;7.13;;
75379;SDS011;65641;44.714;37.756;2024-03-08T02:53:19;9.20;;;7.35;;
75379;SDS011;65641;44.714;37.756;2024-03-08T02:54:22;8.52;;;6.15;;
75379;SDS011;65641;44.714;37.756;2024-03-08T02:55:26;9.20;;;7.30;;
75379;SDS011;65641;44.714;37.756;2024-03-08T02:56:30;10.00;;;8.02;;
75379;SDS011;65641;44.714;37.756;2024-03-08T02:57:37;8.88;;;7.90;;
75379;SDS011;65641;44.714;37.756;2024-03-08T02:58:41;10.90;;;7.50;;
75379;SDS011;65641;44.714;37.756;2024-03-08T02:59:45;8.15;;;5.75;;
75379;SDS011;65641;44.714;37.756;2024-03-08T03:00:49;9.55;;;8.57;;
75379;SDS011;65641;44.714;37.756;2024-03-08T03:01:52;10.13;;;6.53;;
75379;SDS011;65641;44.714;37.756;2024-03-08T03:02:59;9.43;;;7.70;;
75379;SDS011;65641;44.714;37.756;2024-03-08T03:04:05;10.40;;;8.15;;
75379;SDS011;65641;44.714;37.756;2024-03-08T03:05:09;8.65;;;6.05;;
75379;SDS011;65641;44.714;37.756;2024-03-08T03:06:14;10.63;;;7.10;;
75379;SDS011;65641;44.714;37.756;2024-03-08T03:07:18;10.50;;;8.23;;
75379;SDS011;65641;44.714;37.756;2024-03-08T03:08:22;9.02;;;7.57;;
75379;SDS011;65641;44.714;37.756;2024-03-08T03:09:26;9.77;;;7.93;;
75379;SDS011;65641;44.714;37.756;2024-03-08T03:10:30;9.15;;;7.85;;
75379;SDS011;65641;44.714;37.756;2024-03-08T03:11:34;9.43;;;8.23;;
75379;SDS011;65641;44.714;37.756;2024-03-08T03:12:37;9.73;;;7.85;;
75379;SDS011;65641;44.714;37.756;2024-03-08T03:13:41;10.68;;;8.70;;
75379;SDS011;65641;44.714;37.756;2024-03-08T03:14:45;10.73;;;8.35;;
75379;SDS011;65641;44.714;37.756;2024-03-08T03:15:48;10.48;;;8.65;;
75379;SDS011;65641;44.714;37.756;2024-03-08T03:16:52;10.00;;;7.85;;
75379;SDS011;65641;44.714;37.756;2024-03-08T03:17:55;9.88;;;6.90;;
75379;SDS011;65641;44.714;37.756;2024-03-08T03:18:59;9.18;;;6.70;;
75379;SDS011;65641;44.714;37.756;2024-03-08T03:20:05;10.05;;;8.02;;
75379;SDS011;65641;44.714;37.756;2024-03-08T03:21:15;8.52;;;5.88;;
75379;SDS011;65641;44.714;37.756;2024-03-08T03:22:20;9.65;;;7.90;;
75379;SDS011;65641;44.714;37.756;2024-03-08T03:23:24;9.88;;;8.32;;
75379;SDS011;65641;44.714;37.756;2024-03-08T03:24:29;9.60;;;8.30;;
75379;SDS011;65641;44.714;37.756;2024-03-08T03:25:32;10.60;;;8.65;;
75379;SDS011;65641;44.714;37.756;2024-03-08T03:26:38;10.15;;;8.15;;
75379;SDS011;65641;44.714;37.756;2024-03-08T03:27:43;10.18;;;7.72;;
75379;SDS011;65641;44.714;37.756;2024-03-08T03:28:49;9.48;;;6.65;;
75379;SDS011;65641;44.714;37.756;2024-03-08T03:29:52;11.13;;;8.60;;
75379;SDS011;65641;44.714;37.756;2024-03-08T03:30:56;11.00;;;7.40;;
75379;SDS011;65641;44.714;37.756;2024-03-08T03:32:01;9.48;;;8.30;;
75379;SDS011;65641;44.714;37.756;2024-03-08T03:33:06;9.60;;;7.80;;
75379;SDS011;65641;44.714;37.756;2024-03-08T03:34:10;10.90;;;8.35;;
75379;SDS011;65641;44.714;37.756;2024-03-08T03:35:14;10.32;;;8.88;;
75379;SDS011;65641;44.714;37.756;2024-03-08T03:36:18;11.77;;;8.45;;
75379;SDS011;65641;44.714;37.756;2024-03-08T03:37:22;10.77;;;8.43;;
75379;SDS011;65641;44.714;37.756;2024-03-08T03:38:26;12.07;;;8.38;;
75379;SDS011;65641;44.714;37.756;2024-03-08T03:39:30;9.75;;;8.48;;
75379;SDS011;65641;44.714;37.756;2024-03-08T03:40:37;11.40;;;8.85;;
75379;SDS011;65641;44.714;37.756;2024-03-08T03:41:43;10.73;;;8.55;;
75379;SDS011;65641;44.714;37.756;2024-03-08T03:42:49;12.07;;;9.55;;
75379;SDS011;65641;44.714;37.756;2024-03-08T03:43:52;10.65;;;8.38;;
75379;SDS011;65641;44.714;37.756;2024-03-08T03:44:55;10.93;;;8.90;;
75379;SDS011;65641;44.714;37.756;2024-03-08T03:45:59;10.57;;;8.05;;
75379;SDS011;65641;44.714;37.756;2024-03-08T03:47:02;11.07;;;7.03;;
75379;SDS011;65641;44.714;37.756;2024-03-08T03:48:06;10.82;;;8.35;;
75379;SDS011;65641;44.714;37.756;2024-03-08T03:49:13;10.00;;;6.75;;
75379;SDS011;65641;44.714;37.756;2024-03-08T03:50:17;11.27;;;8.63;;
75379;SDS011;65641;44.714;37.756;2024-03-08T03:51:21;11.82;;;9.35;;
75379;SDS011;65641;44.714;37.756;2024-03-08T03:52:25;11.65;;;7.75;;
75379;SDS011;65641;44.714;37.756;2024-03-08T03:53:28;10.95;;;6.90;;
75379;SDS011;65641;44.714;37.756;2024-03-08T03:54:32;10.68;;;8.30;;
75379;SDS011;65641;44.714;37.756;2024-03-08T03:55:36;10.55;;;9.07;;
75379;SDS011;65641;44.714;37.756;2024-03-08T03:57:48;9.65;;;8.05;;
75379;SDS011;65641;44.714;37.756;2024-03-08T03:58:53;11.40;;;8.40;;
75379;SDS011;65641;44.714;37.756;2024-03-08T03:59:56;9.95;;;6.53;;
75379;SDS011;65641;44.714;37.756;2024-03-08T04:01:04;12.10;;;8.90;;
75379;SDS011;65641;44.714;37.756;2024-03-08T04:02:07;12.20;;;8.43;;
75379;SDS011;65641;44.714;37.756;2024-03-08T04:03:11;12.45;;;9.13;;
75379;SDS011;65641;44.714;37.756;2024-03-08T04:04:15;12.32;;;9.23;;
75379;SDS011;65641;44.714;37.756;2024-03-08T04:05:18;11.65;;;8.45;;
75379;SDS011;65641;44.714;37.756;2024-03-08T04:06:22;11.27;;;7.18;;
75379;SDS011;65641;44.714;37.756;2024-03-08T04:07:26;11.00;;;8.60;;
75379;SDS011;65641;44.714;37.756;2024-03-08T04:08:29;11.60;;;8.88;;
75379;SDS011;65641;44.714;37.756;2024-03-08T04:09:35;12.20;;;9.77;;
75379;SDS011;65641;44.714;37.756;2024-03-08T04:10:38;12.15;;;9.15;;
75379;SDS011;65641;44.714;37.756;2024-03-08T04:11:41;12.63;;;9.23;;
75379;SDS011;65641;44.714;37.756;2024-03-08T04:12:45;12.90;;;9.05;;
75379;SDS011;65641;44.714;37.756;2024-03-08T04:13:48;11.18;;;7.60;;
75379;SDS011;65641;44.714;37.756;2024-03-08T04:14:52;12.07;;;9.45;;
75379;SDS011;65641;44.714;37.756;2024-03-08T04:15:56;10.80;;;7.60;;
75379;SDS011;65641;44.714;37.756;2024-03-08T04:16:59;12.20;;;9.70;;
75379;SDS011;65641;44.714;37.756;2024-03-08T04:18:03;11.90;;;7.60;;
75379;SDS011;65641;44.714;37.756;2024-03-08T04:19:07;12.27;;;9.40;;
75379;SDS011;65641;44.714;37.756;2024-03-08T04:20:11;12.77;;;9.65;;
75379;SDS011;65641;44.714;37.756;2024-03-08T04:21:17;12.23;;;9.07;;
75379;SDS011;65641;44.714;37.756;2024-03-08T04:22:24;13.75;;;9.70;;
75379;SDS011;65641;44.714;37.756;2024-03-08T04:23:28;12.90;;;7.75;;
75379;SDS011;65641;44.714;37.756;2024-03-08T04:24:31;11.75;;;9.30;;
75379;SDS011;65641;44.714;37.756;2024-03-08T04:25:35;13.57;;;9.80;;
75379;SDS011;65641;44.714;37.756;2024-03-08T04:26:38;12.23;;;9.23;;
75379;SDS011;65641;44.714;37.756;2024-03-08T04:27:41;12.05;;;9.57;;
75379;SDS011;65641;44.714;37.756;2024-03-08T04:28:45;13.30;;;10.43;;
75379;SDS011;65641;44.714;37.756;2024-03-08T04:29:49;13.10;;;9.60;;
75379;SDS011;65641;44.714;37.756;2024-03-08T04:30:52;12.20;;;8.68;;
75379;SDS011;65641;44.714;37.756;2024-03-08T04:31:57;13.45;;;9.70;;
75379;SDS011;65641;44.714;37.756;2024-03-08T04:33:01;12.50;;;9.70;;
75379;SDS011;65641;44.714;37.756;2024-03-08T04:34:06;15.07;;;10.05;;
75379;SDS011;65641;44.714;37.756;2024-03-08T04:35:10;12.48;;;9.60;;
75379;SDS011;65641;44.714;37.756;2024-03-08T04:36:15;12.55;;;9.27;;
75379;SDS011;65641;44.714;37.756;2024-03-08T04:37:19;13.20;;;10.43;;
75379;SDS011;65641;44.714;37.756;2024-03-08T04:38:26;11.23;;;6.82;;
75379;SDS011;65641;44.714;37.756;2024-03-08T04:39:30;11.93;;;9.48;;
75379;SDS011;65641;44.714;37.756;2024-03-08T04:40:34;14.13;;;10.35;;
75379;SDS011;65641;44.714;37.756;2024-03-08T04:41:37;14.15;;;10.23;;
75379;SDS011;65641;44.714;37.756;2024-03-08T04:42:41;11.95;;;9.18;;
75379;SDS011;65641;44.714;37.756;2024-03-08T04:43:45;13.25;;;9.45;;
75379;SDS011;65641;44.714;37.756;2024-03-08T04:44:49;12.40;;;9.02;;
75379;SDS011;65641;44.714;37.756;2024-03-08T04:45:52;11.30;;;7.68;;
75379;SDS011;65641;44.714;37.756;2024-03-08T04:46:56;13.95;;;10.25;;
75379;SDS011;65641;44.714;37.756;2024-03-08T04:47:59;12.25;;;10.60;;
75379;SDS011;65641;44.714;37.756;2024-03-08T04:49:03;12.57;;;10.10;;
75379;SDS011;65641;44.714;37.756;2024-03-08T04:50:07;14.52;;;10.27;;
75379;SDS011;65641;44.714;37.756;2024-03-08T04:51:11;13.23;;;9.05;;
75379;SDS011;65641;44.714;37.756;2024-03-08T04:52:15;13.73;;;10.07;;
75379;SDS011;65641;44.714;37.756;2024-03-08T04:53:19;12.98;;;9.65;;
75379;SDS011;65641;44.714;37.756;2024-03-08T04:54:23;10.35;;;6.95;;
75379;SDS011;65641;44.714;37.756;2024-03-08T04:55:26;12.15;;;9.23;;
75379;SDS011;65641;44.714;37.756;2024-03-08T04:56:30;12.02;;;8.43;;
75379;SDS011;65641;44.714;37.756;2024-03-08T04:57:34;12.70;;;8.40;;
75379;SDS011;65641;44.714;37.756;2024-03-08T04:58:38;12.20;;;9.20;;
75379;SDS011;65641;44.714;37.756;2024-03-08T04:59:41;13.68;;;9.90;;
75379;SDS011;65641;44.714;37.756;2024-03-08T05:00:44;15.25;;;11.20;;
75379;SDS011;65641;44.714;37.756;2024-03-08T05:01:48;14.25;;;10.88;;
75379;SDS011;65641;44.714;37.756;2024-03-08T05:02:52;13.02;;;10.35;;
75379;SDS011;65641;44.714;37.756;2024-03-08T05:03:56;12.02;;;7.78;;
75379;SDS011;65641;44.714;37.756;2024-03-08T05:05:07;13.65;;;10.25;;
75379;SDS011;65641;44.714;37.756;2024-03-08T05:06:14;12.27;;;8.70;;
75379;SDS011;65641;44.714;37.756;2024-03-08T05:07:17;12.63;;;9.75;;
75379;SDS011;65641;44.714;37.756;2024-03-08T05:08:22;14.23;;;10.85;;
75379;SDS011;65641;44.714;37.756;2024-03-08T05:09:25;12.80;;;9.70;;
75379;SDS011;65641;44.714;37.756;2024-03-08T05:10:29;13.40;;;10.23;;
75379;SDS011;65641;44.714;37.756;2024-03-08T05:11:32;12.68;;;8.88;;
75379;SDS011;65641;44.714;37.756;2024-03-08T05:12:36;11.98;;;7.90;;
75379;SDS011;65641;44.714;37.756;2024-03-08T05:13:41;14.07;;;9.93;;
75379;SDS011;65641;44.714;37.756;2024-03-08T05:14:45;13.02;;;8.52;;
75379;SDS011;65641;44.714;37.756;2024-03-08T05:15:53;12.23;;;7.95;;
75379;SDS011;65641;44.714;37.756;2024-03-08T05:16:57;12.60;;;9.88;;
75379;SDS011;65641;44.714;37.756;2024-03-08T05:18:00;12.90;;;9.70;;
75379;SDS011;65641;44.714;37.756;2024-03-08T05:19:04;13.63;;;9.65;;
75379;SDS011;65641;44.714;37.756;2024-03-08T05:20:08;10.85;;;7.43;;
75379;SDS011;65641;44.714;37.756;2024-03-08T05:21:15;14.60;;;10.18;;
75379;SDS011;65641;44.714;37.756;2024-03-08T05:22:23;13.52;;;9.90;;
75379;SDS011;65641;44.714;37.756;2024-03-08T05:23:26;12.27;;;10.13;;
75379;SDS011;65641;44.714;37.756;2024-03-08T05:24:30;12.63;;;9.68;;
75379;SDS011;65641;44.714;37.756;2024-03-08T05:25:33;12.93;;;8.45;;
75379;SDS011;65641;44.714;37.756;2024-03-08T05:26:37;12.10;;;9.18;;
75379;SDS011;65641;44.714;37.756;2024-03-08T05:27:40;12.82;;;9.25;;
75379;SDS011;65641;44.714;37.756;2024-03-08T05:28:44;13.25;;;9.93;;
75379;SDS011;65641;44.714;37.756;2024-03-08T05:29:47;13.30;;;10.07;;
75379;SDS011;65641;44.714;37.756;2024-03-08T05:30:51;13.10;;;10.82;;
75379;SDS011;65641;44.714;37.756;2024-03-08T05:31:54;11.63;;;9.10;;
75379;SDS011;65641;44.714;37.756;2024-03-08T05:32:59;13.80;;;9.43;;
75379;SDS011;65641;44.714;37.756;2024-03-08T05:34:03;12.45;;;9.88;;
75379;SDS011;65641;44.714;37.756;2024-03-08T05:35:06;13.25;;;9.68;;
75379;SDS011;65641;44.714;37.756;2024-03-08T05:36:12;13.90;;;9.68;;
75379;SDS011;65641;44.714;37.756;2024-03-08T05:37:18;12.63;;;10.02;;
75379;SDS011;65641;44.714;37.756;2024-03-08T05:38:23;12.82;;;8.82;;
75379;SDS011;65641;44.714;37.756;2024-03-08T05:39:27;13.00;;;9.90;;
75379;SDS011;65641;44.714;37.756;2024-03-08T05:40:30;13.00;;;9.98;;
75379;SDS011;65641;44.714;37.756;2024-03-08T05:41:35;12.25;;;10.32;;
75379;SDS011;65641;44.714;37.756;2024-03-08T05:42:38;11.55;;;8.15;;
75379;SDS011;65641;44.714;37.756;2024-03-08T05:43:42;12.52;;;9.68;;
75379;SDS011;65641;44.714;37.756;2024-03-08T05:44:46;13.25;;;10.38;;
75379;SDS011;65641;44.714;37.756;2024-03-08T05:45:49;12.35;;;9.05;;
75379;SDS011;65641;44.714;37.756;2024-03-08T05:46:53;13.82;;;10.13;;
75379;SDS011;65641;44.714;37.756;2024-03-08T05:47:56;11.93;;;9.40;;
75379;SDS011;65641;44.714;37.756;2024-03-08T05:49:00;13.77;;;10.02;;
75379;SDS011;65641;44.714;37.756;2024-03-08T05:50:08;14.38;;;10.45;;
75379;SDS011;65641;44.714;37.756;2024-03-08T05:51:14;13.25;;;9.82;;
75379;SDS011;65641;44.714;37.756;2024-03-08T05:52:18;13.57;;;10.18;;
75379;SDS011;65641;44.714;37.756;2024-03-08T05:53:21;10.95;;;8.48;;
75379;SDS011;65641;44.714;37.756;2024-03-08T05:54:24;11.73;;;9.05;;
75379;SDS011;65641;44.714;37.756;2024-03-08T05:55:28;12.80;;;9.15;;
75379;SDS011;65641;44.714;37.756;2024-03-08T05:56:36;13.48;;;9.82;;
75379;SDS011;65641;44.714;37.756;2024-03-08T05:57:41;13.95;;;9.13;;
75379;SDS011;65641;44.714;37.756;2024-03-08T05:58:45;13.88;;;7.85;;
75379;SDS011;65641;44.714;37.756;2024-03-08T05:59:48;15.68;;;9.40;;
75379;SDS011;65641;44.714;37.756;2024-03-08T06:00:52;12.95;;;9.32;;
75379;SDS011;65641;44.714;37.756;2024-03-08T06:01:55;13.02;;;8.75;;
75379;SDS011;65641;44.714;37.756;2024-03-08T06:02:59;12.05;;;9.95;;
75379;SDS011;65641;44.714;37.756;2024-03-08T06:04:03;12.18;;;10.27;;
75379;SDS011;65641;44.714;37.756;2024-03-08T06:05:10;13.18;;;9.43;;
75379;SDS011;65641;44.714;37.756;2024-03-08T06:06:14;12.43;;;10.27;;
75379;SDS011;65641;44.714;37.756;2024-03-08T06:07:18;13.43;;;8.18;;
75379;SDS011;65641;44.714;37.756;2024-03-08T06:08:22;13.52;;;9.65;;
75379;SDS011;65641;44.714;37.756;2024-03-08T06:09:26;11.98;;;7.93;;
75379;SDS011;65641;44.714;37.756;2024-03-08T06:10:29;12.75;;;8.00;;
75379;SDS011;65641;44.714;37.756;2024-03-08T06:11:33;11.48;;;8.93;;
75379;SDS011;65641;44.714;37.756;2024-03-08T06:12:37;11.75;;;9.05;;
75379;SDS011;65641;44.714;37.756;2024-03-08T06:13:45;13.18;;;9.13;;
75379;SDS011;65641;44.714;37.756;2024-03-08T06:14:49;11.45;;;8.80;;
75379;SDS011;65641;44.714;37.756;2024-03-08T06:15:52;12.05;;;8.70;;
75379;SDS011;65641;44.714;37.756;2024-03-08T06:16:56;11.45;;;9.43;;
75379;SDS011;65641;44.714;37.756;2024-03-08T06:17:59;15.30;;;10.48;;
75379;SDS011;65641;44.714;37.756;2024-03-08T06:19:03;11.93;;;9.18;;
75379;SDS011;65641;44.714;37.756;2024-03-08T06:20:06;13.02;;;9.30;;